sensor_id;sensor_type;location;lat;lon;timestamp;pressure;altitude;pressure_sealevel;temperature;humidity
17855;BME280;9053;53.358;6.382;2022-08-03T00:01:45;101347.31;;;20.88;100.00
17855;BME280;9053;53.358;6.382;2022-08-03T00:04:15;101348.22;;;20.87;100.00
17855;BME280;9053;53.358;6.382;2022-08-03T00:06:47;101345.53;;;20.85;100.00
17855;BME280;9053;53.358;6.382;2022-08-03T00:09:17;101345.53;;;20.85;100.00
17855;BME280;9053;53.358;6.382;2022-08-03T00:11:47;101348.19;;;20.81;100.00
17855;BME280;9053;53.358;6.382;2022-08-03T00:14:17;101349.09;;;20.83;100.00
17855;BME280;9053;53.358;6.382;2022-08-03T00:16:46;101344.66;;;20.82;100.00
17855;BME280;9053;53.358;6.382;2022-08-03T00:19:16;101342.84;;;20.81;100.00
17855;BME280;9053;53.358;6.382;2022-08-03T00:21:48;101339.28;;;20.79;100.00
17855;BME280;9053;53.358;6.382;2022-08-03T00:24:18;101335.72;;;20.78;100.00
17855;BME280;9053;53.358;6.382;2022-08-03T00:26:48;101341.06;;;20.78;100.00
17855;BME280;9053;53.358;6.382;2022-08-03T00:29:18;101339.28;;;20.79;100.00
17855;BME280;9053;53.358;6.382;2022-08-03T00:31:48;101338.41;;;20.77;100.00
17855;BME280;9053;53.358;6.382;2022-08-03T00:34:26;101340.19;;;20.76;100.00
17855;BME280;9053;53.358;6.382;2022-08-03T00:37:17;101338.41;;;20.73;100.00
17855;BME280;9053;53.358;6.382;2022-08-03T00:39:50;101330.38;;;20.75;100.00
17855;BME280;9053;53.358;6.382;2022-08-03T00:42:25;101331.28;;;20.72;100.00
17855;BME280;9053;53.358;6.382;2022-08-03T00:44:55;101334.84;;;20.73;100.00
17855;BME280;9053;53.358;6.382;2022-08-03T00:47:24;101330.38;;;20.73;100.00
17855;BME280;9053;53.358;6.382;2022-08-03T00:49:54;101331.28;;;20.71;100.00
17855;BME280;9053;53.358;6.382;2022-08-03T00:52:26;101332.19;;;20.71;100.00
17855;BME280;9053;53.358;6.382;2022-08-03T00:54:56;101329.50;;;20.68;100.00
17855;BME280;9053;53.358;6.382;2022-08-03T00:57:27;101323.28;;;20.66;100.00
17855;BME280;9053;53.358;6.382;2022-08-03T00:59:58;101323.28;;;20.66;100.00
17855;BME280;9053;53.358;6.382;2022-08-03T01:02:28;101325.94;;;20.68;100.00
17855;BME280;9053;53.358;6.382;2022-08-03T01:04:58;101319.69;;;20.66;100.00
17855;BME280;9053;53.358;6.382;2022-08-03T01:07:40;101317.94;;;20.69;100.00
17855;BME280;9053;53.358;6.382;2022-08-03T01:10:18;101314.34;;;20.70;100.00
17855;BME280;9053;53.358;6.382;2022-08-03T01:12:57;101316.13;;;20.73;100.00
17855;BME280;9053;53.358;6.382;2022-08-03T01:15:33;101312.56;;;20.72;100.00
17855;BME280;9053;53.358;6.382;2022-08-03T01:18:10;101312.56;;;20.72;100.00
17855;BME280;9053;53.358;6.382;2022-08-03T01:20:47;101305.44;;;20.65;100.00
17855;BME280;9053;53.358;6.382;2022-08-03T01:23:36;101309.03;;;20.69;100.00
17855;BME280;9053;53.358;6.382;2022-08-03T01:29:19;101302.78;;;20.67;100.00
17855;BME280;9053;53.358;6.382;2022-08-03T01:31:58;101313.44;;;20.68;100.00
17855;BME280;9053;53.358;6.382;2022-08-03T01:34:54;101309.00;;;20.70;100.00
17855;BME280;9053;53.358;6.382;2022-08-03T01:37:31;101309.00;;;20.73;100.00
17855;BME280;9053;53.358;6.382;2022-08-03T01:40:07;101307.22;;;20.75;100.00
17855;BME280;9053;53.358;6.382;2022-08-03T01:42:39;101306.31;;;20.73;100.00
17855;BME280;9053;53.358;6.382;2022-08-03T01:45:11;101295.63;;;20.75;100.00
17855;BME280;9053;53.358;6.382;2022-08-03T01:47:47;101300.09;;;20.74;100.00
17855;BME280;9053;53.358;6.382;2022-08-03T01:50:20;101298.31;;;20.77;100.00
17855;BME280;9053;53.358;6.382;2022-08-03T01:52:51;101293.84;;;20.75;100.00
17855;BME280;9053;53.358;6.382;2022-08-03T01:55:24;101292.06;;;20.78;100.00
17855;BME280;9053;53.358;6.382;2022-08-03T01:57:55;101281.41;;;20.74;100.00
17855;BME280;9053;53.358;6.382;2022-08-03T02:00:36;101286.75;;;20.70;100.00
17855;BME280;9053;53.358;6.382;2022-08-03T02:03:20;101283.16;;;20.68;100.00
17855;BME280;9053;53.358;6.382;2022-08-03T02:05:52;101283.19;;;20.65;100.00
17855;BME280;9053;53.358;6.382;2022-08-03T02:08:44;101284.06;;;20.62;100.00
17855;BME280;9053;53.358;6.382;2022-08-03T02:11:16;101282.28;;;20.58;100.00
17855;BME280;9053;53.358;6.382;2022-08-03T02:13:47;101284.03;;;20.53;100.00
17855;BME280;9053;53.358;6.382;2022-08-03T02:16:18;101288.50;;;20.52;100.00
17855;BME280;9053;53.358;6.382;2022-08-03T02:18:53;101290.31;;;20.55;100.00
17855;BME280;9053;53.358;6.382;2022-08-03T02:21:24;101281.34;;;20.53;100.00
17855;BME280;9053;53.358;6.382;2022-08-03T02:24:15;101282.25;;;20.52;100.00
17855;BME280;9053;53.358;6.382;2022-08-03T02:26:45;101276.03;;;20.51;100.00
17855;BME280;9053;53.358;6.382;2022-08-03T02:29:20;101280.47;;;20.51;100.00
17855;BME280;9053;53.358;6.382;2022-08-03T02:32:05;101277.81;;;20.49;100.00
17855;BME280;9053;53.358;6.382;2022-08-03T02:34:39;101279.59;;;20.49;100.00
17855;BME280;9053;53.358;6.382;2022-08-03T02:37:11;101275.13;;;20.48;100.00
17855;BME280;9053;53.358;6.382;2022-08-03T02:39:42;101279.56;;;20.46;100.00
17855;BME280;9053;53.358;6.382;2022-08-03T02:42:14;101286.69;;;20.48;100.00
17855;BME280;9053;53.358;6.382;2022-08-03T02:44:49;101275.13;;;20.48;100.00
17855;BME280;9053;53.358;6.382;2022-08-03T02:47:20;101269.78;;;20.45;100.00
17855;BME280;9053;53.358;6.382;2022-08-03T02:49:54;101261.78;;;20.46;100.00
17855;BME280;9053;53.358;6.382;2022-08-03T02:52:27;101262.69;;;20.44;100.00
17855;BME280;9053;53.358;6.382;2022-08-03T02:54:59;101252.00;;;20.44;100.00
17855;BME280;9053;53.358;6.382;2022-08-03T02:57:33;101253.78;;;20.42;100.00
17855;BME280;9053;53.358;6.382;2022-08-03T03:00:05;101254.66;;;20.44;100.00
17855;BME280;9053;53.358;6.382;2022-08-03T03:02:35;101252.84;;;20.46;100.00
17855;BME280;9053;53.358;6.382;2022-08-03T03:05:13;101253.75;;;20.45;100.00
17855;BME280;9053;53.358;6.382;2022-08-03T03:08:04;101252.88;;;20.43;100.00
17855;BME280;9053;53.358;6.382;2022-08-03T03:10:44;101253.78;;;20.42;100.00
17855;BME280;9053;53.358;6.382;2022-08-03T03:13:22;101259.13;;;20.42;100.00
17855;BME280;9053;53.358;6.382;2022-08-03T03:15:53;101255.53;;;20.43;100.00
17855;BME280;9053;53.358;6.382;2022-08-03T03:18:26;101262.66;;;20.42;100.00
17855;BME280;9053;53.358;6.382;2022-08-03T03:21:00;101260.88;;;20.43;100.00
17855;BME280;9053;53.358;6.382;2022-08-03T03:23:31;101258.22;;;20.44;100.00
17855;BME280;9053;53.358;6.382;2022-08-03T03:26:03;101256.41;;;20.43;100.00
17855;BME280;9053;53.358;6.382;2022-08-03T03:28:33;101256.44;;;20.42;100.00
17855;BME280;9053;53.358;6.382;2022-08-03T03:31:06;101256.44;;;20.42;100.00
17855;BME280;9053;53.358;6.382;2022-08-03T03:33:37;101266.22;;;20.40;100.00
17855;BME280;9053;53.358;6.382;2022-08-03T03:36:09;101267.13;;;20.39;100.00
17855;BME280;9053;53.358;6.382;2022-08-03T03:38:39;101263.56;;;20.40;100.00
17855;BME280;9053;53.358;6.382;2022-08-03T03:41:09;101264.47;;;20.39;100.00
17855;BME280;9053;53.358;6.382;2022-08-03T03:43:39;101268.91;;;20.40;100.00
17855;BME280;9053;53.358;6.382;2022-08-03T03:46:11;101261.78;;;20.39;100.00
17855;BME280;9053;53.358;6.382;2022-08-03T03:48:41;101261.78;;;20.37;100.00
17855;BME280;9053;53.358;6.382;2022-08-03T03:51:14;101261.78;;;20.37;100.00
17855;BME280;9053;53.358;6.382;2022-08-03T03:53:54;101252.88;;;20.34;100.00
17855;BME280;9053;53.358;6.382;2022-08-03T03:56:25;101268.00;;;20.38;100.00
17855;BME280;9053;53.358;6.382;2022-08-03T03:58:55;101263.53;;;20.38;100.00
17855;BME280;9053;53.358;6.382;2022-08-03T04:01:24;101264.47;;;20.39;100.00
17855;BME280;9053;53.358;6.382;2022-08-03T04:03:54;101263.56;;;20.37;100.00
17855;BME280;9053;53.358;6.382;2022-08-03T04:06:47;101265.34;;;20.38;100.00
17855;BME280;9053;53.358;6.382;2022-08-03T04:09:30;101265.34;;;20.38;100.00
17855;BME280;9053;53.358;6.382;2022-08-03T04:12:13;101262.69;;;20.36;100.00
17855;BME280;9053;53.358;6.382;2022-08-03T04:14:45;101260.00;;;20.38;100.00
17855;BME280;9053;53.358;6.382;2022-08-03T04:17:17;101267.09;;;20.36;100.00
17855;BME280;9053;53.358;6.382;2022-08-03T04:19:49;101257.34;;;20.36;100.00
17855;BME280;9053;53.358;6.382;2022-08-03T04:22:25;101268.00;;;20.38;100.00
17855;BME280;9053;53.358;6.382;2022-08-03T04:25:00;101262.69;;;20.39;100.00
17855;BME280;9053;53.358;6.382;2022-08-03T04:27:33;101264.47;;;20.42;100.00
17855;BME280;9053;53.358;6.382;2022-08-03T04:30:05;101271.59;;;20.44;100.00
17855;BME280;9053;53.358;6.382;2022-08-03T04:32:36;101266.25;;;20.44;100.00
17855;BME280;9053;53.358;6.382;2022-08-03T04:35:11;101268.91;;;20.44;100.00
17855;BME280;9053;53.358;6.382;2022-08-03T04:37:46;101273.34;;;20.45;100.00
17855;BME280;9053;53.358;6.382;2022-08-03T04:40:20;101284.03;;;20.47;100.00
17855;BME280;9053;53.358;6.382;2022-08-03T04:42:55;101282.28;;;20.49;100.00
17855;BME280;9053;53.358;6.382;2022-08-03T04:45:27;101280.50;;;20.54;100.00
17855;BME280;9053;53.358;6.382;2022-08-03T04:47:58;101276.94;;;20.64;100.00
17855;BME280;9053;53.358;6.382;2022-08-03T04:50:29;101276.91;;;20.86;100.00
17855;BME280;9053;53.358;6.382;2022-08-03T04:53:01;101275.97;;;21.11;100.00
17855;BME280;9053;53.358;6.382;2022-08-03T04:55:33;101288.41;;;21.38;100.00
17855;BME280;9053;53.358;6.382;2022-08-03T04:58:03;101297.25;;;21.62;100.00
17855;BME280;9053;53.358;6.382;2022-08-03T05:00:33;101290.81;;;21.89;100.00
17855;BME280;9053;53.358;6.382;2022-08-03T05:03:03;101292.44;;;22.15;100.00
17855;BME280;9053;53.358;6.382;2022-08-03T05:05:50;101294.06;;;22.42;100.00
17855;BME280;9053;53.358;6.382;2022-08-03T05:08:38;101292.03;;;22.70;100.00
17855;BME280;9053;53.358;6.382;2022-08-03T05:11:14;101289.16;;;22.93;99.65
17855;BME280;9053;53.358;6.382;2022-08-03T05:13:44;101290.72;;;23.16;97.84
17855;BME280;9053;53.358;6.382;2022-08-03T05:16:14;101292.25;;;23.40;96.54
17855;BME280;9053;53.358;6.382;2022-08-03T05:18:44;101287.59;;;23.54;95.28
17855;BME280;9053;53.358;6.382;2022-08-03T05:21:14;101295.41;;;23.71;95.08
17855;BME280;9053;53.358;6.382;2022-08-03T05:23:46;101287.09;;;23.92;94.60
17855;BME280;9053;53.358;6.382;2022-08-03T05:26:16;101286.75;;;24.15;93.70
17855;BME280;9053;53.358;6.382;2022-08-03T05:28:46;101288.38;;;24.26;92.15
17855;BME280;9053;53.358;6.382;2022-08-03T05:31:17;101291.84;;;24.34;91.66
17855;BME280;9053;53.358;6.382;2022-08-03T05:33:47;101285.34;;;24.49;91.52
17855;BME280;9053;53.358;6.382;2022-08-03T05:36:17;101285.09;;;24.64;90.61
17855;BME280;9053;53.358;6.382;2022-08-03T05:38:49;101289.16;;;24.88;90.27
17855;BME280;9053;53.358;6.382;2022-08-03T05:41:19;101286.09;;;25.07;89.36
17855;BME280;9053;53.358;6.382;2022-08-03T05:44:03;101293.13;;;25.15;88.73
17855;BME280;9053;53.358;6.382;2022-08-03T05:46:33;101294.88;;;25.19;88.13
17855;BME280;9053;53.358;6.382;2022-08-03T05:49:03;101296.44;;;25.30;87.77
17855;BME280;9053;53.358;6.382;2022-08-03T05:51:33;101291.75;;;25.41;87.23
17855;BME280;9053;53.358;6.382;2022-08-03T05:54:05;101294.09;;;25.58;87.01
17855;BME280;9053;53.358;6.382;2022-08-03T05:56:35;101290.59;;;25.53;85.91
17855;BME280;9053;53.358;6.382;2022-08-03T05:59:06;101293.16;;;25.59;86.75
17855;BME280;9053;53.358;6.382;2022-08-03T06:01:56;101296.50;;;25.70;86.67
17855;BME280;9053;53.358;6.382;2022-08-03T06:04:26;101291.91;;;25.75;86.35
17855;BME280;9053;53.358;6.382;2022-08-03T06:06:56;101289.09;;;25.81;85.60
17855;BME280;9053;53.358;6.382;2022-08-03T06:09:31;101287.06;;;25.93;85.22
17855;BME280;9053;53.358;6.382;2022-08-03T06:12:20;101287.81;;;25.99;85.37
17855;BME280;9053;53.358;6.382;2022-08-03T06:14:50;101287.66;;;26.05;85.55
17855;BME280;9053;53.358;6.382;2022-08-03T06:17:20;101281.94;;;26.21;85.30
17855;BME280;9053;53.358;6.382;2022-08-03T06:19:52;101280.88;;;26.26;85.38
17855;BME280;9053;53.358;6.382;2022-08-03T06:22:22;101287.75;;;26.38;84.05
17855;BME280;9053;53.358;6.382;2022-08-03T06:24:55;101288.34;;;26.51;84.09
17855;BME280;9053;53.358;6.382;2022-08-03T06:27:30;101283.84;;;26.53;83.42
17855;BME280;9053;53.358;6.382;2022-08-03T06:30:04;101287.53;;;26.49;83.02
17855;BME280;9053;53.358;6.382;2022-08-03T06:32:36;101287.75;;;26.38;84.20
17855;BME280;9053;53.358;6.382;2022-08-03T06:35:07;101286.50;;;26.54;83.85
17855;BME280;9053;53.358;6.382;2022-08-03T06:37:43;101292.66;;;26.61;82.67
17855;BME280;9053;53.358;6.382;2022-08-03T06:40:18;101298.03;;;26.61;83.03
17855;BME280;9053;53.358;6.382;2022-08-03T06:42:54;101295.44;;;26.57;83.30
17855;BME280;9053;53.358;6.382;2022-08-03T06:45:24;101300.00;;;26.54;82.86
17855;BME280;9053;53.358;6.382;2022-08-03T06:48:02;101294.31;;;26.65;84.01
17855;BME280;9053;53.358;6.382;2022-08-03T06:50:33;101295.75;;;26.79;83.37
17855;BME280;9053;53.358;6.382;2022-08-03T06:53:04;101289.69;;;27.05;82.89
17855;BME280;9053;53.358;6.382;2022-08-03T06:55:46;101298.88;;;27.30;82.28
17855;BME280;9053;53.358;6.382;2022-08-03T06:58:20;101296.50;;;27.51;81.54
17855;BME280;9053;53.358;6.382;2022-08-03T07:00:50;101289.84;;;27.62;80.87
17855;BME280;9053;53.358;6.382;2022-08-03T07:03:20;101292.47;;;27.64;80.59
17855;BME280;9053;53.358;6.382;2022-08-03T07:05:50;101290.50;;;27.71;80.34
17855;BME280;9053;53.358;6.382;2022-08-03T07:08:19;101294.88;;;27.75;80.51
17855;BME280;9053;53.358;6.382;2022-08-03T07:11:02;101302.66;;;27.87;80.14
17855;BME280;9053;53.358;6.382;2022-08-03T07:13:33;101295.91;;;28.00;80.15
17855;BME280;9053;53.358;6.382;2022-08-03T07:16:03;101293.75;;;28.12;79.73
17855;BME280;9053;53.358;6.382;2022-08-03T07:18:36;101290.66;;;28.24;79.21
17855;BME280;9053;53.358;6.382;2022-08-03T07:21:06;101288.50;;;28.35;79.10
17855;BME280;9053;53.358;6.382;2022-08-03T07:23:38;101293.28;;;28.55;78.45
17855;BME280;9053;53.358;6.382;2022-08-03T07:26:10;101296.47;;;28.66;78.05
17855;BME280;9053;53.358;6.382;2022-08-03T07:28:40;101302.34;;;28.79;78.07
17855;BME280;9053;53.358;6.382;2022-08-03T07:31:10;101296.47;;;28.93;77.51
17855;BME280;9053;53.358;6.382;2022-08-03T07:33:40;101294.63;;;28.94;77.24
17855;BME280;9053;53.358;6.382;2022-08-03T07:36:09;101298.19;;;28.96;77.00
17855;BME280;9053;53.358;6.382;2022-08-03T07:38:39;101304.00;;;29.10;76.93
17855;BME280;9053;53.358;6.382;2022-08-03T07:41:11;101303.25;;;29.05;76.73
17855;BME280;9053;53.358;6.382;2022-08-03T07:43:41;101303.81;;;29.15;76.98
17855;BME280;9053;53.358;6.382;2022-08-03T07:46:14;101302.72;;;29.20;77.14
17855;BME280;9053;53.358;6.382;2022-08-03T07:48:44;101307.22;;;29.21;76.28
17855;BME280;9053;53.358;6.382;2022-08-03T07:51:14;101308.13;;;29.20;76.18
17855;BME280;9053;53.358;6.382;2022-08-03T07:53:43;101305.88;;;29.08;76.19
17855;BME280;9053;53.358;6.382;2022-08-03T07:56:16;101308.78;;;29.02;76.71
17855;BME280;9053;53.358;6.382;2022-08-03T07:58:47;101320.16;;;28.86;76.99
17855;BME280;9053;53.358;6.382;2022-08-03T08:01:16;101319.50;;;29.05;77.37
17855;BME280;9053;53.358;6.382;2022-08-03T08:03:46;101322.31;;;29.28;77.36
17855;BME280;9053;53.358;6.382;2022-08-03T08:06:19;101317.06;;;29.47;76.45
17855;BME280;9053;53.358;6.382;2022-08-03T08:08:49;101322.38;;;29.50;76.50
17855;BME280;9053;53.358;6.382;2022-08-03T08:11:22;101324.56;;;29.64;75.90
17855;BME280;9053;53.358;6.382;2022-08-03T08:13:51;101323.47;;;29.70;75.81
17855;BME280;9053;53.358;6.382;2022-08-03T08:16:21;101326.44;;;29.62;75.49
17855;BME280;9053;53.358;6.382;2022-08-03T08:18:51;101326.41;;;29.64;75.40
17855;BME280;9053;53.358;6.382;2022-08-03T08:21:21;101337.69;;;29.76;75.79
17855;BME280;9053;53.358;6.382;2022-08-03T08:24:10;101332.16;;;29.80;75.93
17855;BME280;9053;53.358;6.382;2022-08-03T08:26:48;101332.97;;;29.82;75.44
17855;BME280;9053;53.358;6.382;2022-08-03T08:29:18;101323.53;;;29.68;75.40
17855;BME280;9053;53.358;6.382;2022-08-03T08:31:49;101323.38;;;29.48;75.36
17855;BME280;9053;53.358;6.382;2022-08-03T08:34:18;101319.47;;;29.31;75.74
17855;BME280;9053;53.358;6.382;2022-08-03T08:36:48;101326.28;;;29.18;76.29
17855;BME280;9053;53.358;6.382;2022-08-03T08:39:18;101323.31;;;28.99;76.95
17855;BME280;9053;53.358;6.382;2022-08-03T08:41:52;101324.13;;;28.76;77.47
17855;BME280;9053;53.358;6.382;2022-08-03T08:44:22;101324.53;;;28.64;78.11
17855;BME280;9053;53.358;6.382;2022-08-03T08:46:52;101328.84;;;28.69;78.34
17855;BME280;9053;53.358;6.382;2022-08-03T08:49:25;101321.97;;;28.86;78.22
17855;BME280;9053;53.358;6.382;2022-08-03T08:51:57;101321.34;;;29.03;78.17
17855;BME280;9053;53.358;6.382;2022-08-03T08:54:28;101327.81;;;29.25;77.49
17855;BME280;9053;53.358;6.382;2022-08-03T08:57:03;101327.25;;;29.41;77.43
17855;BME280;9053;53.358;6.382;2022-08-03T08:59:55;101331.03;;;29.11;76.63
17855;BME280;9053;53.358;6.382;2022-08-03T09:02:28;101327.94;;;29.22;77.16
17855;BME280;9053;53.358;6.382;2022-08-03T09:04:59;101324.06;;;29.29;77.08
17855;BME280;9053;53.358;6.382;2022-08-03T09:07:33;101330.06;;;29.38;77.50
17855;BME280;9053;53.358;6.382;2022-08-03T09:10:04;101331.19;;;29.55;77.37
17855;BME280;9053;53.358;6.382;2022-08-03T09:12:42;101335.84;;;29.77;77.08
17855;BME280;9053;53.358;6.382;2022-08-03T09:15:17;101331.88;;;29.86;76.75
17855;BME280;9053;53.358;6.382;2022-08-03T09:17:49;101333.06;;;29.79;75.92
17855;BME280;9053;53.358;6.382;2022-08-03T09:20:20;101326.00;;;29.74;76.22
17855;BME280;9053;53.358;6.382;2022-08-03T09:22:52;101330.47;;;29.75;76.24
17855;BME280;9053;53.358;6.382;2022-08-03T09:25:28;101331.47;;;29.73;76.32
17855;BME280;9053;53.358;6.382;2022-08-03T09:28:09;101322.72;;;29.66;76.42
17855;BME280;9053;53.358;6.382;2022-08-03T09:30:59;101329.16;;;29.62;76.23
17855;BME280;9053;53.358;6.382;2022-08-03T09:33:29;101330.91;;;29.63;76.58
17855;BME280;9053;53.358;6.382;2022-08-03T09:36:01;101324.56;;;29.64;76.15
17855;BME280;9053;53.358;6.382;2022-08-03T09:38:31;101326.19;;;29.70;76.57
17855;BME280;9053;53.358;6.382;2022-08-03T09:41:01;101332.31;;;29.75;76.79
17855;BME280;9053;53.358;6.382;2022-08-03T09:43:44;101324.47;;;29.67;75.78
17855;BME280;9053;53.358;6.382;2022-08-03T09:46:17;101331.13;;;29.59;76.76
17855;BME280;9053;53.358;6.382;2022-08-03T09:48:47;101327.28;;;29.64;77.21
17855;BME280;9053;53.358;6.382;2022-08-03T09:51:23;101330.88;;;29.65;76.57
17855;BME280;9053;53.358;6.382;2022-08-03T09:54:24;101328.16;;;29.66;76.38
17855;BME280;9053;53.358;6.382;2022-08-03T09:56:55;101320.94;;;29.65;76.75
17855;BME280;9053;53.358;6.382;2022-08-03T09:59:29;101325.22;;;29.71;76.95
17855;BME280;9053;53.358;6.382;2022-08-03T10:02:00;101332.31;;;29.75;76.98
17855;BME280;9053;53.358;6.382;2022-08-03T10:04:29;101329.59;;;29.75;76.97
17855;BME280;9053;53.358;6.382;2022-08-03T10:07:04;101340.50;;;29.73;77.23
17855;BME280;9053;53.358;6.382;2022-08-03T10:09:35;101335.53;;;29.61;76.33
17855;BME280;9053;53.358;6.382;2022-08-03T10:12:09;101342.25;;;29.51;76.53
17855;BME280;9053;53.358;6.382;2022-08-03T10:14:42;101334.88;;;29.29;77.16
17855;BME280;9053;53.358;6.382;2022-08-03T10:17:12;101335.22;;;29.20;77.10
17855;BME280;9053;53.358;6.382;2022-08-03T10:19:42;101346.88;;;29.22;77.54
17855;BME280;9053;53.358;6.382;2022-08-03T10:22:14;101336.66;;;29.30;77.97
17855;BME280;9053;53.358;6.382;2022-08-03T10:24:50;101334.84;;;29.31;77.83
17855;BME280;9053;53.358;6.382;2022-08-03T10:27:22;101332.78;;;29.38;77.97
17855;BME280;9053;53.358;6.382;2022-08-03T10:29:55;101334.00;;;29.29;77.36
17855;BME280;9053;53.358;6.382;2022-08-03T10:32:31;101332.34;;;29.25;77.16
17855;BME280;9053;53.358;6.382;2022-08-03T10:35:04;101332.03;;;29.34;77.59
17855;BME280;9053;53.358;6.382;2022-08-03T10:37:51;101340.97;;;29.36;77.64
17855;BME280;9053;53.358;6.382;2022-08-03T10:40:26;101327.72;;;29.28;77.78
17855;BME280;9053;53.358;6.382;2022-08-03T10:43:20;101323.00;;;29.33;78.07
17855;BME280;9053;53.358;6.382;2022-08-03T10:45:54;101328.44;;;29.33;77.98
17855;BME280;9053;53.358;6.382;2022-08-03T10:48:25;101335.50;;;29.38;78.22
17855;BME280;9053;53.358;6.382;2022-08-03T10:50:55;101324.06;;;29.29;77.42
17855;BME280;9053;53.358;6.382;2022-08-03T10:53:35;101329.81;;;29.20;77.61
17855;BME280;9053;53.358;6.382;2022-08-03T10:56:06;101329.81;;;29.20;78.00
17855;BME280;9053;53.358;6.382;2022-08-03T10:59:15;101340.00;;;29.14;77.99
17855;BME280;9053;53.358;6.382;2022-08-03T11:01:56;101338.44;;;29.05;78.62
17855;BME280;9053;53.358;6.382;2022-08-03T11:04:27;101341.97;;;29.08;79.09
17855;BME280;9053;53.358;6.382;2022-08-03T11:07:19;101334.84;;;29.04;77.00
17855;BME280;9053;53.358;6.382;2022-08-03T11:09:51;101331.91;;;29.12;77.37
17855;BME280;9053;53.358;6.382;2022-08-03T11:12:22;101333.75;;;29.11;77.72
17855;BME280;9053;53.358;6.382;2022-08-03T11:14:58;101335.41;;;29.16;78.35
17855;BME280;9053;53.358;6.382;2022-08-03T11:17:31;101333.66;;;29.13;78.62
17855;BME280;9053;53.358;6.382;2022-08-03T11:20:45;101323.31;;;28.99;78.26
17855;BME280;9053;53.358;6.382;2022-08-03T11:23:17;101323.16;;;29.04;78.22
17855;BME280;9053;53.358;6.382;2022-08-03T11:26:12;101341.91;;;29.10;78.34
17855;BME280;9053;53.358;6.382;2022-08-03T11:28:43;101327.38;;;29.12;78.36
17855;BME280;9053;53.358;6.382;2022-08-03T11:34:27;101339.75;;;29.20;77.92
17855;BME280;9053;53.358;6.382;2022-08-03T11:37:18;101343.13;;;29.26;77.19
17855;BME280;9053;53.358;6.382;2022-08-03T11:39:59;101333.94;;;29.30;77.93
17855;BME280;9053;53.358;6.382;2022-08-03T11:42:42;101342.97;;;29.31;77.23
17855;BME280;9053;53.358;6.382;2022-08-03T11:45:18;101335.78;;;29.30;77.54
17855;BME280;9053;53.358;6.382;2022-08-03T11:47:48;101344.84;;;29.29;77.53
17855;BME280;9053;53.358;6.382;2022-08-03T11:50:35;101338.56;;;29.28;77.86
17855;BME280;9053;53.358;6.382;2022-08-03T11:53:06;101340.59;;;29.22;77.47
17855;BME280;9053;53.358;6.382;2022-08-03T11:55:36;101337.91;;;29.20;78.39
17855;BME280;9053;53.358;6.382;2022-08-03T11:58:15;101340.34;;;29.28;77.80
17855;BME280;9053;53.358;6.382;2022-08-03T12:01:05;101349.59;;;29.22;77.59
17855;BME280;9053;53.358;6.382;2022-08-03T12:03:38;101346.78;;;29.25;77.62
17855;BME280;9053;53.358;6.382;2022-08-03T12:06:12;101346.78;;;29.25;78.09
17855;BME280;9053;53.358;6.382;2022-08-03T12:08:43;101349.28;;;29.31;77.64
17855;BME280;9053;53.358;6.382;2022-08-03T12:11:14;101350.91;;;29.36;77.64
17855;BME280;9053;53.358;6.382;2022-08-03T12:13:45;101360.00;;;29.34;77.99
17855;BME280;9053;53.358;6.382;2022-08-03T12:16:36;101356.44;;;29.32;77.14
17855;BME280;9053;53.358;6.382;2022-08-03T12:19:06;101352.75;;;29.35;77.54
17855;BME280;9053;53.358;6.382;2022-08-03T12:21:47;101357.25;;;29.36;78.39
17855;BME280;9053;53.358;6.382;2022-08-03T12:24:23;101357.16;;;29.38;78.30
17855;BME280;9053;53.358;6.382;2022-08-03T12:26:55;101350.91;;;29.36;77.75
17855;BME280;9053;53.358;6.382;2022-08-03T12:29:26;101360.22;;;29.28;77.81
17855;BME280;9053;53.358;6.382;2022-08-03T12:31:56;101345.97;;;29.23;78.29
17855;BME280;9053;53.358;6.382;2022-08-03T12:34:46;101357.88;;;29.18;78.67
17855;BME280;9053;53.358;6.382;2022-08-03T12:37:21;101347.84;;;29.21;79.07
17855;BME280;9053;53.358;6.382;2022-08-03T12:39:52;101357.50;;;29.28;78.71
17855;BME280;9053;53.358;6.382;2022-08-03T12:42:30;101357.44;;;29.30;78.12
17855;BME280;9053;53.358;6.382;2022-08-03T12:45:19;101347.00;;;29.19;77.62
17855;BME280;9053;53.358;6.382;2022-08-03T12:47:53;101359.94;;;29.11;79.04
17855;BME280;9053;53.358;6.382;2022-08-03T12:50:25;101353.47;;;29.15;78.90
17855;BME280;9053;53.358;6.382;2022-08-03T12:53:01;101351.38;;;29.23;78.76
17855;BME280;9053;53.358;6.382;2022-08-03T12:55:35;101354.88;;;29.25;79.08
17855;BME280;9053;53.358;6.382;2022-08-03T12:58:29;101359.78;;;29.16;78.74
17855;BME280;9053;53.358;6.382;2022-08-03T13:01:02;101360.53;;;29.19;79.02
17855;BME280;9053;53.358;6.382;2022-08-03T13:03:40;101357.78;;;29.21;78.86
17855;BME280;9053;53.358;6.382;2022-08-03T13:06:16;101356.56;;;29.29;79.02
17855;BME280;9053;53.358;6.382;2022-08-03T13:08:49;101360.88;;;29.35;79.18
17855;BME280;9053;53.358;6.382;2022-08-03T13:11:29;101364.25;;;29.42;78.73
17855;BME280;9053;53.358;6.382;2022-08-03T13:14:19;101360.88;;;29.35;78.43
17855;BME280;9053;53.358;6.382;2022-08-03T13:16:50;101361.81;;;29.34;78.86
17855;BME280;9053;53.358;6.382;2022-08-03T13:19:19;101362.09;;;29.26;78.03
17855;BME280;9053;53.358;6.382;2022-08-03T13:21:49;101363.66;;;29.33;78.32
17855;BME280;9053;53.358;6.382;2022-08-03T13:24:33;101354.81;;;29.28;79.42
17855;BME280;9053;53.358;6.382;2022-08-03T13:27:03;101358.44;;;29.27;78.58
17855;BME280;9053;53.358;6.382;2022-08-03T13:29:53;101355.81;;;29.26;78.06
17855;BME280;9053;53.358;6.382;2022-08-03T13:32:23;101347.47;;;29.30;78.04
17855;BME280;9053;53.358;6.382;2022-08-03T13:34:53;101349.28;;;29.31;77.88
17855;BME280;9053;53.358;6.382;2022-08-03T13:37:22;101349.19;;;29.33;77.44
17855;BME280;9053;53.358;6.382;2022-08-03T13:39:55;101356.44;;;29.32;77.56
17855;BME280;9053;53.358;6.382;2022-08-03T13:42:29;101349.75;;;29.43;77.59